sensor_id;sensor_type;location;lat;lon;timestamp;P1;P2;P0
76421;PMS5003;65254;52.354;13.614;2023-03-01T00:00:00;36;32;
76421;PMS5003;65254;52.354;13.614;2023-03-01T00:04:00;39;34;
76421;PMS5003;65254;52.354;13.614;2023-03-01T00:08:00;43;37;
76421;PMS5003;65254;52.354;13.614;2023-03-01T00:12:00;44;39;
76421;PMS5003;65254;52.354;13.614;2023-03-01T00:16:01;46;41;
76421;PMS5003;65254;52.354;13.614;2023-03-01T00:20:00;44;39;
76421;PMS5003;65254;52.354;13.614;2023-03-01T00:24:01;46;40;
76421;PMS5003;65254;52.354;13.614;2023-03-01T00:28:00;43;38;
76421;PMS5003;65254;52.354;13.614;2023-03-01T00:32:00;44;39;
76421;PMS5003;65254;52.354;13.614;2023-03-01T00:36:00;43;38;
76421;PMS5003;65254;52.354;13.614;2023-03-01T00:40:00;43;38;
76421;PMS5003;65254;52.354;13.614;2023-03-01T00:44:00;41;36;
76421;PMS5003;65254;52.354;13.614;2023-03-01T00:48:00;42;37;
76421;PMS5003;65254;52.354;13.614;2023-03-01T00:52:00;39;34;
76421;PMS5003;65254;52.354;13.614;2023-03-01T00:56:00;39;34;
76421;PMS5003;65254;52.354;13.614;2023-03-01T01:00:00;36;32;
76421;PMS5003;65254;52.354;13.614;2023-03-01T01:04:02;36;32;
76421;PMS5003;65254;52.354;13.614;2023-03-01T01:08:00;34;30;
76421;PMS5003;65254;52.354;13.614;2023-03-01T01:12:00;34;30;
76421;PMS5003;65254;52.354;13.614;2023-03-01T01:16:00;33;29;
76421;PMS5003;65254;52.354;13.614;2023-03-01T01:20:00;34;30;
76421;PMS5003;65254;52.354;13.614;2023-03-01T01:24:02;34;30;
76421;PMS5003;65254;52.354;13.614;2023-03-01T01:28:00;34;30;
76421;PMS5003;65254;52.354;13.614;2023-03-01T01:32:00;35;31;
76421;PMS5003;65254;52.354;13.614;2023-03-01T01:36:00;34;30;
76421;PMS5003;65254;52.354;13.614;2023-03-01T01:40:01;36;32;
76421;PMS5003;65254;52.354;13.614;2023-03-01T01:44:13;35;31;
76421;PMS5003;65254;52.354;13.614;2023-03-01T01:48:03;38;34;
76421;PMS5003;65254;52.354;13.614;2023-03-01T01:52:07;37;33;
76421;PMS5003;65254;52.354;13.614;2023-03-01T01:56:01;36;32;
76421;PMS5003;65254;52.354;13.614;2023-03-01T02:00:11;39;34;
76421;PMS5003;65254;52.354;13.614;2023-03-01T02:04:00;37;33;
76421;PMS5003;65254;52.354;13.614;2023-03-01T02:08:00;40;35;
76421;PMS5003;65254;52.354;13.614;2023-03-01T02:12:01;39;34;
76421;PMS5003;65254;52.354;13.614;2023-03-01T02:16:02;38;34;
76421;PMS5003;65254;52.354;13.614;2023-03-01T02:20:10;36;32;
76421;PMS5003;65254;52.354;13.614;2023-03-01T02:24:05;35;31;
76421;PMS5003;65254;52.354;13.614;2023-03-01T02:28:04;34;30;
76421;PMS5003;65254;52.354;13.614;2023-03-01T02:32:02;33;29;
76421;PMS5003;65254;52.354;13.614;2023-03-01T02:36:01;32;28;
76421;PMS5003;65254;52.354;13.614;2023-03-01T02:40:04;30;26;
76421;PMS5003;65254;52.354;13.614;2023-03-01T02:44:00;34;30;
76421;PMS5003;65254;52.354;13.614;2023-03-01T02:48:00;31;28;
76421;PMS5003;65254;52.354;13.614;2023-03-01T02:52:08;30;27;
76421;PMS5003;65254;52.354;13.614;2023-03-01T02:56:00;30;27;
76421;PMS5003;65254;52.354;13.614;2023-03-01T03:00:03;31;28;
76421;PMS5003;65254;52.354;13.614;2023-03-01T03:04:00;29;26;
76421;PMS5003;65254;52.354;13.614;2023-03-01T03:08:02;29;26;
76421;PMS5003;65254;52.354;13.614;2023-03-01T03:12:00;31;28;
76421;PMS5003;65254;52.354;13.614;2023-03-01T03:16:02;30;26;
76421;PMS5003;65254;52.354;13.614;2023-03-01T03:20:00;29;26;
76421;PMS5003;65254;52.354;13.614;2023-03-01T03:24:00;29;25;
76421;PMS5003;65254;52.354;13.614;2023-03-01T03:28:00;31;27;
76421;PMS5003;65254;52.354;13.614;2023-03-01T03:32:00;29;26;
76421;PMS5003;65254;52.354;13.614;2023-03-01T03:36:00;30;26;
76421;PMS5003;65254;52.354;13.614;2023-03-01T03:40:00;31;27;
76421;PMS5003;65254;52.354;13.614;2023-03-01T03:44:00;29;26;
76421;PMS5003;65254;52.354;13.614;2023-03-01T03:48:01;31;28;
76421;PMS5003;65254;52.354;13.614;2023-03-01T03:52:00;29;26;
76421;PMS5003;65254;52.354;13.614;2023-03-01T03:56:00;31;28;
76421;PMS5003;65254;52.354;13.614;2023-03-01T04:00:00;30;27;
76421;PMS5003;65254;52.354;13.614;2023-03-01T04:04:00;32;29;
76421;PMS5003;65254;52.354;13.614;2023-03-01T04:08:00;45;40;
76421;PMS5003;65254;52.354;13.614;2023-03-01T04:12:00;38;34;
76421;PMS5003;65254;52.354;13.614;2023-03-01T04:16:00;33;29;
76421;PMS5003;65254;52.354;13.614;2023-03-01T04:20:00;36;32;
76421;PMS5003;65254;52.354;13.614;2023-03-01T04:24:00;34;30;
76421;PMS5003;65254;52.354;13.614;2023-03-01T04:28:00;35;31;
76421;PMS5003;65254;52.354;13.614;2023-03-01T04:32:00;35;31;
76421;PMS5003;65254;52.354;13.614;2023-03-01T04:36:00;35;31;
76421;PMS5003;65254;52.354;13.614;2023-03-01T04:40:00;36;32;
76421;PMS5003;65254;52.354;13.614;2023-03-01T04:44:00;34;30;
76421;PMS5003;65254;52.354;13.614;2023-03-01T04:48:00;31;28;
76421;PMS5003;65254;52.354;13.614;2023-03-01T04:52:00;32;28;
76421;PMS5003;65254;52.354;13.614;2023-03-01T04:56:00;32;29;
76421;PMS5003;65254;52.354;13.614;2023-03-01T05:00:00;34;30;
76421;PMS5003;65254;52.354;13.614;2023-03-01T05:04:00;32;28;
76421;PMS5003;65254;52.354;13.614;2023-03-01T05:08:02;34;29;
76421;PMS5003;65254;52.354;13.614;2023-03-01T05:12:00;32;29;
76421;PMS5003;65254;52.354;13.614;2023-03-01T05:16:01;34;30;
76421;PMS5003;65254;52.354;13.614;2023-03-01T05:20:00;30;27;
76421;PMS5003;65254;52.354;13.614;2023-03-01T05:24:00;34;30;
76421;PMS5003;65254;52.354;13.614;2023-03-01T05:28:01;31;28;
76421;PMS5003;65254;52.354;13.614;2023-03-01T05:32:01;30;27;
76421;PMS5003;65254;52.354;13.614;2023-03-01T05:36:00;30;27;
76421;PMS5003;65254;52.354;13.614;2023-03-01T05:40:00;30;27;
76421;PMS5003;65254;52.354;13.614;2023-03-01T05:44:00;30;27;
76421;PMS5003;65254;52.354;13.614;2023-03-01T05:48:00;30;26;
76421;PMS5003;65254;52.354;13.614;2023-03-01T05:52:00;30;26;
76421;PMS5003;65254;52.354;13.614;2023-03-01T05:56:02;28;25;
76421;PMS5003;65254;52.354;13.614;2023-03-01T06:00:00;28;25;
76421;PMS5003;65254;52.354;13.614;2023-03-01T06:04:01;28;25;
76421;PMS5003;65254;52.354;13.614;2023-03-01T06:08:01;28;25;
76421;PMS5003;65254;52.354;13.614;2023-03-01T06:12:00;30;26;
76421;PMS5003;65254;52.354;13.614;2023-03-01T06:16:00;31;28;
76421;PMS5003;65254;52.354;13.614;2023-03-01T06:20:00;30;27;
76421;PMS5003;65254;52.354;13.614;2023-03-01T06:24:00;30;27;
76421;PMS5003;65254;52.354;13.614;2023-03-01T06:28:00;30;27;
76421;PMS5003;65254;52.354;13.614;2023-03-01T06:32:00;29;26;
76421;PMS5003;65254;52.354;13.614;2023-03-01T06:36:00;28;25;
76421;PMS5003;65254;52.354;13.614;2023-03-01T06:40:00;34;30;
76421;PMS5003;65254;52.354;13.614;2023-03-01T06:44:00;35;31;
76421;PMS5003;65254;52.354;13.614;2023-03-01T06:48:02;34;30;
76421;PMS5003;65254;52.354;13.614;2023-03-01T06:52:00;33;29;
76421;PMS5003;65254;52.354;13.614;2023-03-01T06:56:00;33;29;
76421;PMS5003;65254;52.354;13.614;2023-03-01T07:00:00;34;30;
76421;PMS5003;65254;52.354;13.614;2023-03-01T07:04:00;36;32;
76421;PMS5003;65254;52.354;13.614;2023-03-01T07:08:00;35;31;
76421;PMS5003;65254;52.354;13.614;2023-03-01T07:12:00;33;29;
76421;PMS5003;65254;52.354;13.614;2023-03-01T07:16:00;32;29;
76421;PMS5003;65254;52.354;13.614;2023-03-01T07:20:00;34;30;
76421;PMS5003;65254;52.354;13.614;2023-03-01T07:24:00;33;29;
76421;PMS5003;65254;52.354;13.614;2023-03-01T07:28:00;31;27;
76421;PMS5003;65254;52.354;13.614;2023-03-01T07:32:00;30;27;
76421;PMS5003;65254;52.354;13.614;2023-03-01T07:36:02;30;27;
76421;PMS5003;65254;52.354;13.614;2023-03-01T07:40:00;28;25;
76421;PMS5003;65254;52.354;13.614;2023-03-01T07:44:00;30;27;
76421;PMS5003;65254;52.354;13.614;2023-03-01T07:48:00;31;28;
76421;PMS5003;65254;52.354;13.614;2023-03-01T07:52:00;26;23;
76421;PMS5003;65254;52.354;13.614;2023-03-01T07:56:01;23;21;
76421;PMS5003;65254;52.354;13.614;2023-03-01T08:00:00;22;20;
76421;PMS5003;65254;52.354;13.614;2023-03-01T08:04:00;19;17;
76421;PMS5003;65254;52.354;13.614;2023-03-01T08:08:00;19;17;
76421;PMS5003;65254;52.354;13.614;2023-03-01T08:12:00;19;17;
76421;PMS5003;65254;52.354;13.614;2023-03-01T08:16:01;18;16;
76421;PMS5003;65254;52.354;13.614;2023-03-01T08:20:00;20;18;
76421;PMS5003;65254;52.354;13.614;2023-03-01T08:24:00;19;17;
76421;PMS5003;65254;52.354;13.614;2023-03-01T08:28:00;21;19;
76421;PMS5003;65254;52.354;13.614;2023-03-01T08:32:00;19;17;
76421;PMS5003;65254;52.354;13.614;2023-03-01T08:36:03;18;16;
76421;PMS5003;65254;52.354;13.614;2023-03-01T08:40:00;18;16;
76421;PMS5003;65254;52.354;13.614;2023-03-01T08:44:00;15;14;
76421;PMS5003;65254;52.354;13.614;2023-03-01T08:48:00;17;15;
76421;PMS5003;65254;52.354;13.614;2023-03-01T08:52:02;16;14;
76421;PMS5003;65254;52.354;13.614;2023-03-01T08:56:00;15;14;
76421;PMS5003;65254;52.354;13.614;2023-03-01T09:00:00;17;15;
76421;PMS5003;65254;52.354;13.614;2023-03-01T09:04:00;16;14;
76421;PMS5003;65254;52.354;13.614;2023-03-01T09:08:00;17;15;
76421;PMS5003;65254;52.354;13.614;2023-03-01T09:12:00;15;14;
76421;PMS5003;65254;52.354;13.614;2023-03-01T09:16:02;15;14;
76421;PMS5003;65254;52.354;13.614;2023-03-01T09:20:00;15;13;
76421;PMS5003;65254;52.354;13.614;2023-03-01T09:24:00;14;13;
76421;PMS5003;65254;52.354;13.614;2023-03-01T09:28:00;17;15;
76421;PMS5003;65254;52.354;13.614;2023-03-01T09:32:00;14;13;
76421;PMS5003;65254;52.354;13.614;2023-03-01T09:36:02;12;11;
76421;PMS5003;65254;52.354;13.614;2023-03-01T09:40:00;15;14;
76421;PMS5003;65254;52.354;13.614;2023-03-01T09:44:03;13;12;
76421;PMS5003;65254;52.354;13.614;2023-03-01T09:48:01;12;11;
76421;PMS5003;65254;52.354;13.614;2023-03-01T09:52:04;10;9;
76421;PMS5003;65254;52.354;13.614;2023-03-01T09:56:04;10;9;
76421;PMS5003;65254;52.354;13.614;2023-03-01T10:00:13;11;10;
76421;PMS5003;65254;52.354;13.614;2023-03-01T10:04:12;9;8;
76421;PMS5003;65254;52.354;13.614;2023-03-01T10:08:14;7;7;
76421;PMS5003;65254;52.354;13.614;2023-03-01T10:12:01;7;7;
76421;PMS5003;65254;52.354;13.614;2023-03-01T10:16:04;9;8;
76421;PMS5003;65254;52.354;13.614;2023-03-01T10:20:14;6;6;
76421;PMS5003;65254;52.354;13.614;2023-03-01T10:24:08;7;7;
76421;PMS5003;65254;52.354;13.614;2023-03-01T10:28:02;10;9;
76421;PMS5003;65254;52.354;13.614;2023-03-01T10:32:01;9;8;
76421;PMS5003;65254;52.354;13.614;2023-03-01T10:36:00;9;8;
76421;PMS5003;65254;52.354;13.614;2023-03-01T10:40:02;9;8;
76421;PMS5003;65254;52.354;13.614;2023-03-01T10:44:00;8;7;
76421;PMS5003;65254;52.354;13.614;2023-03-01T10:48:08;7;7;
76421;PMS5003;65254;52.354;13.614;2023-03-01T10:52:15;7;7;
76421;PMS5003;65254;52.354;13.614;2023-03-01T10:56:03;7;7;
76421;PMS5003;65254;52.354;13.614;2023-03-01T11:00:10;6;6;
76421;PMS5003;65254;52.354;13.614;2023-03-01T11:04:10;6;6;
76421;PMS5003;65254;52.354;13.614;2023-03-01T11:08:01;6;6;
76421;PMS5003;65254;52.354;13.614;2023-03-01T11:12:00;7;7;
76421;PMS5003;65254;52.354;13.614;2023-03-01T11:16:02;6;6;
76421;PMS5003;65254;52.354;13.614;2023-03-01T11:20:14;6;6;
76421;PMS5003;65254;52.354;13.614;2023-03-01T11:24:01;5;5;
76421;PMS5003;65254;52.354;13.614;2023-03-01T11:28:01;5;5;
76421;PMS5003;65254;52.354;13.614;2023-03-01T11:32:04;4;4;
76421;PMS5003;65254;52.354;13.614;2023-03-01T11:36:04;4;4;
76421;PMS5003;65254;52.354;13.614;2023-03-01T11:40:10;4;4;
76421;PMS5003;65254;52.354;13.614;2023-03-01T11:44:03;4;4;
76421;PMS5003;65254;52.354;13.614;2023-03-01T11:48:11;4;4;
76421;PMS5003;65254;52.354;13.614;2023-03-01T11:52:11;5;5;
76421;PMS5003;65254;52.354;13.614;2023-03-01T11:56:05;4;4;
76421;PMS5003;65254;52.354;13.614;2023-03-01T12:00:07;5;5;
76421;PMS5003;65254;52.354;13.614;2023-03-01T12:04:13;5;5;
76421;PMS5003;65254;52.354;13.614;2023-03-01T12:08:05;6;6;
76421;PMS5003;65254;52.354;13.614;2023-03-01T12:12:17;5;5;
76421;PMS5003;65254;52.354;13.614;2023-03-01T12:16:07;5;5;
76421;PMS5003;65254;52.354;13.614;2023-03-01T12:20:09;5;5;
76421;PMS5003;65254;52.354;13.614;2023-03-01T12:24:08;5;5;
76421;PMS5003;65254;52.354;13.614;2023-03-01T12:28:09;4;4;
76421;PMS5003;65254;52.354;13.614;2023-03-01T12:32:10;5;5;
76421;PMS5003;65254;52.354;13.614;2023-03-01T12:36:14;5;5;
76421;PMS5003;65254;52.354;13.614;2023-03-01T12:40:14;4;4;
76421;PMS5003;65254;52.354;13.614;2023-03-01T12:44:11;4;4;
76421;PMS5003;65254;52.354;13.614;2023-03-01T12:48:16;4;4;
76421;PMS5003;65254;52.354;13.614;2023-03-01T12:52:03;5;5;
76421;PMS5003;65254;52.354;13.614;2023-03-01T12:56:03;4;4;
76421;PMS5003;65254;52.354;13.614;2023-03-01T13:00:09;4;4;
76421;PMS5003;65254;52.354;13.614;2023-03-01T13:08:07;4;4;
76421;PMS5003;65254;52.354;13.614;2023-03-01T13:12:03;4;4;
76421;PMS5003;65254;52.354;13.614;2023-03-01T13:20:00;4;4;
76421;PMS5003;65254;52.354;13.614;2023-03-01T13:24:00;5;5;
76421;PMS5003;65254;52.354;13.614;2023-03-01T13:32:00;5;5;
76421;PMS5003;65254;52.354;13.614;2023-03-01T13:36:00;4;4;
76421;PMS5003;65254;52.354;13.614;2023-03-01T13:40:05;4;4;
76421;PMS5003;65254;52.354;13.614;2023-03-01T13:44:00;5;5;
76421;PMS5003;65254;52.354;13.614;2023-03-01T13:48:02;4;4;
76421;PMS5003;65254;52.354;13.614;2023-03-01T13:52:01;4;4;
76421;PMS5003;65254;52.354;13.614;2023-03-01T13:56:02;3;3;
76421;PMS5003;65254;52.354;13.614;2023-03-01T14:00:00;3;3;
76421;PMS5003;65254;52.354;13.614;2023-03-01T14:04:01;3;3;
76421;PMS5003;65254;52.354;13.614;2023-03-01T14:08:00;4;4;
76421;PMS5003;65254;52.354;13.614;2023-03-01T14:12:06;4;4;
76421;PMS5003;65254;52.354;13.614;2023-03-01T14:16:11;3;3;
76421;PMS5003;65254;52.354;13.614;2023-03-01T14:20:02;3;3;
76421;PMS5003;65254;52.354;13.614;2023-03-01T14:24:00;3;3;
76421;PMS5003;65254;52.354;13.614;2023-03-01T14:28:04;2;2;
76421;PMS5003;65254;52.354;13.614;2023-03-01T14:32:09;3;3;
76421;PMS5003;65254;52.354;13.614;2023-03-01T14:36:01;3;3;
76421;PMS5003;65254;52.354;13.614;2023-03-01T14:40:02;3;3;
76421;PMS5003;65254;52.354;13.614;2023-03-01T14:44:02;3;3;
76421;PMS5003;65254;52.354;13.614;2023-03-01T14:48:02;3;3;
76421;PMS5003;65254;52.354;13.614;2023-03-01T14:52:02;3;3;
76421;PMS5003;65254;52.354;13.614;2023-03-01T14:56:01;3;3;
76421;PMS5003;65254;52.354;13.614;2023-03-01T15:00:03;3;3;
76421;PMS5003;65254;52.354;13.614;2023-03-01T15:04:01;2;2;
76421;PMS5003;65254;52.354;13.614;2023-03-01T15:08:02;3;3;
76421;PMS5003;65254;52.354;13.614;2023-03-01T15:12:00;3;3;
76421;PMS5003;65254;52.354;13.614;2023-03-01T15:16:03;3;3;
76421;PMS5003;65254;52.354;13.614;2023-03-01T15:20:00;3;3;
76421;PMS5003;65254;52.354;13.614;2023-03-01T15:24:03;3;3;
76421;PMS5003;65254;52.354;13.614;2023-03-01T15:28:01;3;3;
76421;PMS5003;65254;52.354;13.614;2023-03-01T15:32:02;3;3;
76421;PMS5003;65254;52.354;13.614;2023-03-01T15:36:01;4;4;
76421;PMS5003;65254;52.354;13.614;2023-03-01T15:40:00;2;2;
76421;PMS5003;65254;52.354;13.614;2023-03-01T15:44:17;3;3;
76421;PMS5003;65254;52.354;13.614;2023-03-01T15:48:02;3;3;
76421;PMS5003;65254;52.354;13.614;2023-03-01T15:52:00;3;3;
76421;PMS5003;65254;52.354;13.614;2023-03-01T15:56:00;3;3;
76421;PMS5003;65254;52.354;13.614;2023-03-01T16:00:00;3;3;
76421;PMS5003;65254;52.354;13.614;2023-03-01T16:04:00;3;3;
76421;PMS5003;65254;52.354;13.614;2023-03-01T16:08:01;3;3;
76421;PMS5003;65254;52.354;13.614;2023-03-01T16:12:00;3;3;
76421;PMS5003;65254;52.354;13.614;2023-03-01T16:16:00;3;3;
76421;PMS5003;65254;52.354;13.614;2023-03-01T16:20:00;4;4;
76421;PMS5003;65254;52.354;13.614;2023-03-01T16:24:00;4;4;
76421;PMS5003;65254;52.354;13.614;2023-03-01T16:28:00;5;5;
76421;PMS5003;65254;52.354;13.614;2023-03-01T16:32:00;5;5;
76421;PMS5003;65254;52.354;13.614;2023-03-01T16:36:01;5;5;
76421;PMS5003;65254;52.354;13.614;2023-03-01T16:40:00;5;5;
76421;PMS5003;65254;52.354;13.614;2023-03-01T16:44:00;5;5;
76421;PMS5003;65254;52.354;13.614;2023-03-01T16:48:00;5;5;
76421;PMS5003;65254;52.354;13.614;2023-03-01T16:52:00;5;5;
76421;PMS5003;65254;52.354;13.614;2023-03-01T16:56:00;5;5;
76421;PMS5003;65254;52.354;13.614;2023-03-01T17:00:00;4;4;
76421;PMS5003;65254;52.354;13.614;2023-03-01T17:04:00;4;4;
76421;PMS5003;65254;52.354;13.614;2023-03-01T17:08:00;5;5;
76421;PMS5003;65254;52.354;13.614;2023-03-01T17:12:00;6;6;
76421;PMS5003;65254;52.354;13.614;2023-03-01T17:16:02;5;5;
76421;PMS5003;65254;52.354;13.614;2023-03-01T17:20:01;6;6;
76421;PMS5003;65254;52.354;13.614;2023-03-01T17:24:00;6;6;
76421;PMS5003;65254;52.354;13.614;2023-03-01T17:28:00;7;7;
76421;PMS5003;65254;52.354;13.614;2023-03-01T17:32:01;7;7;
76421;PMS5003;65254;52.354;13.614;2023-03-01T17:36:00;9;8;
76421;PMS5003;65254;52.354;13.614;2023-03-01T17:40:00;14;13;
76421;PMS5003;65254;52.354;13.614;2023-03-01T17:44:00;15;14;
76421;PMS5003;65254;52.354;13.614;2023-03-01T17:48:00;20;18;
76421;PMS5003;65254;52.354;13.614;2023-03-01T17:52:00;22;20;
76421;PMS5003;65254;52.354;13.614;2023-03-01T17:56:02;20;18;
76421;PMS5003;65254;52.354;13.614;2023-03-01T18:00:00;18;16;
76421;PMS5003;65254;52.354;13.614;2023-03-01T18:04:00;12;11;
76421;PMS5003;65254;52.354;13.614;2023-03-01T18:08:00;12;11;
76421;PMS5003;65254;52.354;13.614;2023-03-01T18:12:00;12;11;
76421;PMS5003;65254;52.354;13.614;2023-03-01T18:16:03;12;11;
76421;PMS5003;65254;52.354;13.614;2023-03-01T18:20:02;12;11;
76421;PMS5003;65254;52.354;13.614;2023-03-01T18:24:00;13;12;
76421;PMS5003;65254;52.354;13.614;2023-03-01T18:28:00;12;11;
76421;PMS5003;65254;52.354;13.614;2023-03-01T18:32:00;17;15;
76421;PMS5003;65254;52.354;13.614;2023-03-01T18:36:00;20;18;
76421;PMS5003;65254;52.354;13.614;2023-03-01T18:40:00;21;19;
76421;PMS5003;65254;52.354;13.614;2023-03-01T18:44:01;28;25;
76421;PMS5003;65254;52.354;13.614;2023-03-01T18:48:00;29;26;
76421;PMS5003;65254;52.354;13.614;2023-03-01T18:52:00;22;20;
76421;PMS5003;65254;52.354;13.614;2023-03-01T18:56:00;21;19;
76421;PMS5003;65254;52.354;13.614;2023-03-01T19:00:00;20;18;
76421;PMS5003;65254;52.354;13.614;2023-03-01T19:04:00;18;16;
76421;PMS5003;65254;52.354;13.614;2023-03-01T19:08:00;20;18;
76421;PMS5003;65254;52.354;13.614;2023-03-01T19:12:00;20;18;
76421;PMS5003;65254;52.354;13.614;2023-03-01T19:16:02;20;18;
76421;PMS5003;65254;52.354;13.614;2023-03-01T19:20:00;21;19;
76421;PMS5003;65254;52.354;13.614;2023-03-01T19:24:00;23;21;
76421;PMS5003;65254;52.354;13.614;2023-03-01T19:28:00;22;20;
76421;PMS5003;65254;52.354;13.614;2023-03-01T19:32:00;23;20;
76421;PMS5003;65254;52.354;13.614;2023-03-01T19:36:00;22;20;
76421;PMS5003;65254;52.354;13.614;2023-03-01T19:40:00;22;20;
76421;PMS5003;65254;52.354;13.614;2023-03-01T19:44:00;21;19;
76421;PMS5003;65254;52.354;13.614;2023-03-01T19:48:00;22;20;
76421;PMS5003;65254;52.354;13.614;2023-03-01T19:52:00;26;23;
76421;PMS5003;65254;52.354;13.614;2023-03-01T19:56:01;32;29;
76421;PMS5003;65254;52.354;13.614;2023-03-01T20:00:00;33;29;
76421;PMS5003;65254;52.354;13.614;2023-03-01T20:04:01;25;22;
76421;PMS5003;65254;52.354;13.614;2023-03-01T20:08:00;21;19;
76421;PMS5003;65254;52.354;13.614;2023-03-01T20:12:00;22;20;
76421;PMS5003;65254;52.354;13.614;2023-03-01T20:16:00;21;19;
76421;PMS5003;65254;52.354;13.614;2023-03-01T20:20:00;18;16;
76421;PMS5003;65254;52.354;13.614;2023-03-01T20:24:00;18;16;
76421;PMS5003;65254;52.354;13.614;2023-03-01T20:28:00;19;17;
76421;PMS5003;65254;52.354;13.614;2023-03-01T20:32:00;21;19;
76421;PMS5003;65254;52.354;13.614;2023-03-01T20:36:00;22;19;
76421;PMS5003;65254;52.354;13.614;2023-03-01T20:40:00;20;18;
76421;PMS5003;65254;52.354;13.614;2023-03-01T20:44:00;20;18;
76421;PMS5003;65254;52.354;13.614;2023-03-01T20:48:00;21;19;
76421;PMS5003;65254;52.354;13.614;2023-03-01T20:52:00;22;20;
76421;PMS5003;65254;52.354;13.614;2023-03-01T20:56:01;22;20;
76421;PMS5003;65254;52.354;13.614;2023-03-01T21:00:00;23;21;
76421;PMS5003;65254;52.354;13.614;2023-03-01T21:04:01;26;23;
76421;PMS5003;65254;52.354;13.614;2023-03-01T21:08:00;28;25;
76421;PMS5003;65254;52.354;13.614;2023-03-01T21:12:00;29;26;
76421;PMS5003;65254;52.354;13.614;2023-03-01T21:16:02;29;26;
76421;PMS5003;65254;52.354;13.614;2023-03-01T21:20:00;28;25;
76421;PMS5003;65254;52.354;13.614;2023-03-01T21:24:00;26;23;
76421;PMS5003;65254;52.354;13.614;2023-03-01T21:28:00;26;23;
76421;PMS5003;65254;52.354;13.614;2023-03-01T21:32:01;27;24;
76421;PMS5003;65254;52.354;13.614;2023-03-01T21:36:02;28;25;
76421;PMS5003;65254;52.354;13.614;2023-03-01T21:40:00;30;27;
76421;PMS5003;65254;52.354;13.614;2023-03-01T21:44:01;31;28;
76421;PMS5003;65254;52.354;13.614;2023-03-01T21:48:00;32;29;
76421;PMS5003;65254;52.354;13.614;2023-03-01T21:52:00;33;29;
76421;PMS5003;65254;52.354;13.614;2023-03-01T21:56:01;37;32;
76421;PMS5003;65254;52.354;13.614;2023-03-01T22:00:00;36;32;
76421;PMS5003;65254;52.354;13.614;2023-03-01T22:04:00;39;34;
76421;PMS5003;65254;52.354;13.614;2023-03-01T22:08:00;38;34;
76421;PMS5003;65254;52.354;13.614;2023-03-01T22:12:00;37;33;
76421;PMS5003;65254;52.354;13.614;2023-03-01T22:16:00;39;35;
76421;PMS5003;65254;52.354;13.614;2023-03-01T22:20:00;38;34;
76421;PMS5003;65254;52.354;13.614;2023-03-01T22:24:00;37;33;
76421;PMS5003;65254;52.354;13.614;2023-03-01T22:28:00;39;34;
76421;PMS5003;65254;52.354;13.614;2023-03-01T22:32:01;37;33;
76421;PMS5003;65254;52.354;13.614;2023-03-01T22:36:00;36;32;
76421;PMS5003;65254;52.354;13.614;2023-03-01T22:40:00;35;31;
76421;PMS5003;65254;52.354;13.614;2023-03-01T22:44:00;37;33;
76421;PMS5003;65254;52.354;13.614;2023-03-01T22:48:00;36;32;
76421;PMS5003;65254;52.354;13.614;2023-03-01T22:52:01;34;30;
76421;PMS5003;65254;52.354;13.614;2023-03-01T22:56:09;36;32;
76421;PMS5003;65254;52.354;13.614;2023-03-01T23:00:00;36;32;
76421;PMS5003;65254;52.354;13.614;2023-03-01T23:04:01;36;32;
76421;PMS5003;65254;52.354;13.614;2023-03-01T23:08:00;35;31;
76421;PMS5003;65254;52.354;13.614;2023-03-01T23:12:01;35;31;
76421;PMS5003;65254;52.354;13.614;2023-03-01T23:16:00;36;32;
76421;PMS5003;65254;52.354;13.614;2023-03-01T23:20:00;34;30;
76421;PMS5003;65254;52.354;13.614;2023-03-01T23:24:00;31;28;
76421;PMS5003;65254;52.354;13.614;2023-03-01T23:28:00;32;29;
76421;PMS5003;65254;52.354;13.614;2023-03-01T23:32:01;30;27;
76421;PMS5003;65254;52.354;13.614;2023-03-01T23:36:02;27;24;
76421;PMS5003;65254;52.354;13.614;2023-03-01T23:40:00;28;25;
76421;PMS5003;65254;52.354;13.614;2023-03-01T23:44:02;29;26;
76421;PMS5003;65254;52.354;13.614;2023-03-01T23:48:00;31;27;
76421;PMS5003;65254;52.354;13.614;2023-03-01T23:52:00;30;27;
76421;PMS5003;65254;52.354;13.614;2023-03-01T23:56:01;30;27;
